sensor_id;sensor_type;location;lat;lon;timestamp;P1;durP1;ratioP1;P2;durP2;ratioP2
5042;SDS011;2540;50.928;6.856;2023-06-10T00:00:38;16.67;;;11.53;;
5042;SDS011;2540;50.928;6.856;2023-06-10T00:03:06;18.77;;;10.20;;
5042;SDS011;2540;50.928;6.856;2023-06-10T00:05:32;14.20;;;10.00;;
5042;SDS011;2540;50.928;6.856;2023-06-10T00:07:57;21.40;;;9.23;;
5042;SDS011;2540;50.928;6.856;2023-06-10T00:10:23;14.47;;;10.47;;
5042;SDS011;2540;50.928;6.856;2023-06-10T00:12:49;14.63;;;10.20;;
5042;SDS011;2540;50.928;6.856;2023-06-10T00:15:14;15.40;;;10.60;;
5042;SDS011;2540;50.928;6.856;2023-06-10T00:17:40;15.23;;;10.07;;
5042;SDS011;2540;50.928;6.856;2023-06-10T00:20:08;14.47;;;9.93;;
5042;SDS011;2540;50.928;6.856;2023-06-10T00:22:36;13.37;;;10.13;;
5042;SDS011;2540;50.928;6.856;2023-06-10T00:25:03;11.37;;;9.50;;
5042;SDS011;2540;50.928;6.856;2023-06-10T00:27:29;13.93;;;9.97;;
5042;SDS011;2540;50.928;6.856;2023-06-10T00:30:00;12.80;;;10.67;;
5042;SDS011;2540;50.928;6.856;2023-06-10T00:32:29;14.80;;;10.03;;
5042;SDS011;2540;50.928;6.856;2023-06-10T00:34:55;12.37;;;9.60;;
5042;SDS011;2540;50.928;6.856;2023-06-10T00:37:20;13.30;;;9.63;;
5042;SDS011;2540;50.928;6.856;2023-06-10T00:39:45;15.83;;;10.70;;
5042;SDS011;2540;50.928;6.856;2023-06-10T00:42:11;12.30;;;10.30;;
5042;SDS011;2540;50.928;6.856;2023-06-10T00:44:36;14.20;;;9.97;;
5042;SDS011;2540;50.928;6.856;2023-06-10T00:47:01;11.77;;;9.50;;
5042;SDS011;2540;50.928;6.856;2023-06-10T00:49:27;19.23;;;10.07;;
5042;SDS011;2540;50.928;6.856;2023-06-10T00:51:52;15.43;;;11.30;;
5042;SDS011;2540;50.928;6.856;2023-06-10T00:54:18;14.17;;;10.23;;
5042;SDS011;2540;50.928;6.856;2023-06-10T00:56:44;12.07;;;9.63;;
5042;SDS011;2540;50.928;6.856;2023-06-10T00:59:10;13.37;;;10.20;;
5042;SDS011;2540;50.928;6.856;2023-06-10T01:01:36;11.10;;;9.37;;
5042;SDS011;2540;50.928;6.856;2023-06-10T01:04:02;17.60;;;11.20;;
5042;SDS011;2540;50.928;6.856;2023-06-10T01:11:47;13.73;;;10.17;;
5042;SDS011;2540;50.928;6.856;2023-06-10T01:14:18;18.07;;;9.97;;
5042;SDS011;2540;50.928;6.856;2023-06-10T01:16:43;14.57;;;10.57;;
5042;SDS011;2540;50.928;6.856;2023-06-10T01:19:11;12.07;;;9.73;;
5042;SDS011;2540;50.928;6.856;2023-06-10T01:21:37;16.00;;;10.10;;
5042;SDS011;2540;50.928;6.856;2023-06-10T01:24:04;16.63;;;9.97;;
5042;SDS011;2540;50.928;6.856;2023-06-10T01:26:33;13.90;;;10.73;;
5042;SDS011;2540;50.928;6.856;2023-06-10T01:29:00;13.83;;;9.90;;
5042;SDS011;2540;50.928;6.856;2023-06-10T01:34:09;13.53;;;10.13;;
5042;SDS011;2540;50.928;6.856;2023-06-10T01:36:35;12.73;;;10.20;;
5042;SDS011;2540;50.928;6.856;2023-06-10T01:39:01;11.33;;;9.73;;
5042;SDS011;2540;50.928;6.856;2023-06-10T01:41:27;11.70;;;9.33;;
5042;SDS011;2540;50.928;6.856;2023-06-10T01:43:54;13.87;;;9.23;;
5042;SDS011;2540;50.928;6.856;2023-06-10T01:46:19;11.50;;;9.53;;
5042;SDS011;2540;50.928;6.856;2023-06-10T01:48:46;13.20;;;10.87;;
5042;SDS011;2540;50.928;6.856;2023-06-10T01:51:11;12.33;;;9.20;;
5042;SDS011;2540;50.928;6.856;2023-06-10T01:53:37;11.17;;;9.73;;
5042;SDS011;2540;50.928;6.856;2023-06-10T01:56:02;14.83;;;10.40;;
5042;SDS011;2540;50.928;6.856;2023-06-10T01:58:27;12.90;;;9.50;;
5042;SDS011;2540;50.928;6.856;2023-06-10T02:00:52;14.40;;;9.80;;
5042;SDS011;2540;50.928;6.856;2023-06-10T02:03:18;10.77;;;9.53;;
5042;SDS011;2540;50.928;6.856;2023-06-10T02:05:43;12.97;;;9.73;;
5042;SDS011;2540;50.928;6.856;2023-06-10T02:08:08;12.17;;;8.63;;
5042;SDS011;2540;50.928;6.856;2023-06-10T02:10:34;14.07;;;9.20;;
5042;SDS011;2540;50.928;6.856;2023-06-10T02:12:59;16.17;;;9.70;;
5042;SDS011;2540;50.928;6.856;2023-06-10T02:15:25;14.53;;;8.90;;
5042;SDS011;2540;50.928;6.856;2023-06-10T02:17:51;12.20;;;10.60;;
5042;SDS011;2540;50.928;6.856;2023-06-10T02:20:16;14.13;;;10.17;;
5042;SDS011;2540;50.928;6.856;2023-06-10T02:22:42;14.23;;;10.10;;
5042;SDS011;2540;50.928;6.856;2023-06-10T02:25:07;13.63;;;10.23;;
5042;SDS011;2540;50.928;6.856;2023-06-10T02:27:33;15.13;;;9.80;;
5042;SDS011;2540;50.928;6.856;2023-06-10T02:29:58;11.93;;;8.97;;
5042;SDS011;2540;50.928;6.856;2023-06-10T02:32:24;13.30;;;10.20;;
5042;SDS011;2540;50.928;6.856;2023-06-10T02:34:50;11.67;;;9.47;;
5042;SDS011;2540;50.928;6.856;2023-06-10T02:37:16;11.07;;;8.67;;
5042;SDS011;2540;50.928;6.856;2023-06-10T02:39:41;14.53;;;9.50;;
5042;SDS011;2540;50.928;6.856;2023-06-10T02:42:07;12.03;;;9.70;;
5042;SDS011;2540;50.928;6.856;2023-06-10T02:44:32;11.37;;;9.33;;
5042;SDS011;2540;50.928;6.856;2023-06-10T02:46:57;12.77;;;9.83;;
5042;SDS011;2540;50.928;6.856;2023-06-10T02:49:23;13.37;;;9.87;;
5042;SDS011;2540;50.928;6.856;2023-06-10T02:51:49;15.23;;;9.90;;
5042;SDS011;2540;50.928;6.856;2023-06-10T02:54:18;11.90;;;9.20;;
5042;SDS011;2540;50.928;6.856;2023-06-10T02:56:43;12.23;;;9.37;;
5042;SDS011;2540;50.928;6.856;2023-06-10T02:59:08;15.90;;;9.63;;
5042;SDS011;2540;50.928;6.856;2023-06-10T03:01:33;13.17;;;9.10;;
5042;SDS011;2540;50.928;6.856;2023-06-10T03:04:01;13.13;;;10.00;;
5042;SDS011;2540;50.928;6.856;2023-06-10T03:06:28;15.97;;;9.37;;
5042;SDS011;2540;50.928;6.856;2023-06-10T03:08:54;14.60;;;10.80;;
5042;SDS011;2540;50.928;6.856;2023-06-10T03:11:19;14.17;;;10.10;;
5042;SDS011;2540;50.928;6.856;2023-06-10T03:13:45;12.60;;;9.33;;
5042;SDS011;2540;50.928;6.856;2023-06-10T03:16:10;12.10;;;10.00;;
5042;SDS011;2540;50.928;6.856;2023-06-10T03:18:37;13.50;;;10.20;;
5042;SDS011;2540;50.928;6.856;2023-06-10T03:21:02;15.30;;;9.90;;
5042;SDS011;2540;50.928;6.856;2023-06-10T03:23:28;10.83;;;9.40;;
5042;SDS011;2540;50.928;6.856;2023-06-10T03:25:54;11.97;;;9.40;;
5042;SDS011;2540;50.928;6.856;2023-06-10T03:28:20;16.33;;;10.60;;
5042;SDS011;2540;50.928;6.856;2023-06-10T03:30:46;13.93;;;10.50;;
5042;SDS011;2540;50.928;6.856;2023-06-10T03:33:12;13.53;;;10.60;;
5042;SDS011;2540;50.928;6.856;2023-06-10T03:35:37;12.67;;;9.97;;
5042;SDS011;2540;50.928;6.856;2023-06-10T03:38:02;12.07;;;9.57;;
5042;SDS011;2540;50.928;6.856;2023-06-10T03:40:28;17.70;;;11.60;;
5042;SDS011;2540;50.928;6.856;2023-06-10T03:42:55;15.43;;;9.67;;
5042;SDS011;2540;50.928;6.856;2023-06-10T03:45:20;11.67;;;10.13;;
5042;SDS011;2540;50.928;6.856;2023-06-10T03:47:46;13.23;;;9.90;;
5042;SDS011;2540;50.928;6.856;2023-06-10T03:50:13;16.17;;;10.90;;
5042;SDS011;2540;50.928;6.856;2023-06-10T03:52:38;13.90;;;9.87;;
5042;SDS011;2540;50.928;6.856;2023-06-10T03:55:05;15.70;;;10.63;;
5042;SDS011;2540;50.928;6.856;2023-06-10T03:57:31;16.10;;;10.80;;
5042;SDS011;2540;50.928;6.856;2023-06-10T03:59:56;15.53;;;11.57;;
5042;SDS011;2540;50.928;6.856;2023-06-10T04:02:21;14.73;;;11.10;;
5042;SDS011;2540;50.928;6.856;2023-06-10T04:04:47;17.03;;;11.20;;
5042;SDS011;2540;50.928;6.856;2023-06-10T04:07:13;13.80;;;10.70;;
5042;SDS011;2540;50.928;6.856;2023-06-10T04:09:38;17.63;;;10.97;;
5042;SDS011;2540;50.928;6.856;2023-06-10T04:12:04;11.30;;;9.57;;
5042;SDS011;2540;50.928;6.856;2023-06-10T04:14:33;14.07;;;10.53;;
5042;SDS011;2540;50.928;6.856;2023-06-10T04:17:00;13.67;;;9.90;;
5042;SDS011;2540;50.928;6.856;2023-06-10T04:19:26;13.90;;;10.17;;
5042;SDS011;2540;50.928;6.856;2023-06-10T04:21:51;13.13;;;10.30;;
5042;SDS011;2540;50.928;6.856;2023-06-10T04:24:17;15.00;;;9.70;;
5042;SDS011;2540;50.928;6.856;2023-06-10T04:26:42;15.60;;;10.73;;
5042;SDS011;2540;50.928;6.856;2023-06-10T04:29:08;14.03;;;10.80;;
5042;SDS011;2540;50.928;6.856;2023-06-10T04:31:33;16.40;;;10.77;;
5042;SDS011;2540;50.928;6.856;2023-06-10T04:33:59;13.07;;;9.70;;
5042;SDS011;2540;50.928;6.856;2023-06-10T04:36:25;12.20;;;9.70;;
5042;SDS011;2540;50.928;6.856;2023-06-10T04:38:51;18.73;;;10.77;;
5042;SDS011;2540;50.928;6.856;2023-06-10T04:41:17;15.70;;;11.63;;
5042;SDS011;2540;50.928;6.856;2023-06-10T04:43:42;20.33;;;10.83;;
5042;SDS011;2540;50.928;6.856;2023-06-10T04:46:08;13.87;;;10.77;;
5042;SDS011;2540;50.928;6.856;2023-06-10T04:48:33;13.33;;;10.50;;
5042;SDS011;2540;50.928;6.856;2023-06-10T04:51:00;13.20;;;10.17;;
5042;SDS011;2540;50.928;6.856;2023-06-10T04:53:25;14.83;;;10.53;;
5042;SDS011;2540;50.928;6.856;2023-06-10T04:55:51;13.23;;;10.60;;
5042;SDS011;2540;50.928;6.856;2023-06-10T04:58:16;17.60;;;11.23;;
5042;SDS011;2540;50.928;6.856;2023-06-10T05:00:41;16.67;;;11.03;;
5042;SDS011;2540;50.928;6.856;2023-06-10T05:03:07;13.40;;;11.63;;
5042;SDS011;2540;50.928;6.856;2023-06-10T05:05:32;14.17;;;10.60;;
5042;SDS011;2540;50.928;6.856;2023-06-10T05:07:57;13.50;;;10.77;;
5042;SDS011;2540;50.928;6.856;2023-06-10T05:10:23;12.20;;;10.13;;
5042;SDS011;2540;50.928;6.856;2023-06-10T05:12:48;17.13;;;11.10;;
5042;SDS011;2540;50.928;6.856;2023-06-10T05:15:13;13.47;;;11.53;;
5042;SDS011;2540;50.928;6.856;2023-06-10T05:17:39;12.93;;;11.53;;
5042;SDS011;2540;50.928;6.856;2023-06-10T05:20:04;13.93;;;10.43;;
5042;SDS011;2540;50.928;6.856;2023-06-10T05:22:31;14.73;;;10.93;;
5042;SDS011;2540;50.928;6.856;2023-06-10T05:24:56;14.83;;;10.80;;
5042;SDS011;2540;50.928;6.856;2023-06-10T05:27:22;14.43;;;10.17;;
5042;SDS011;2540;50.928;6.856;2023-06-10T05:29:47;14.20;;;9.83;;
5042;SDS011;2540;50.928;6.856;2023-06-10T05:32:12;18.97;;;10.80;;
5042;SDS011;2540;50.928;6.856;2023-06-10T05:34:38;10.60;;;8.90;;
5042;SDS011;2540;50.928;6.856;2023-06-10T05:37:03;13.03;;;9.00;;
5042;SDS011;2540;50.928;6.856;2023-06-10T05:39:29;9.57;;;8.03;;
5042;SDS011;2540;50.928;6.856;2023-06-10T05:41:54;15.73;;;7.80;;
5042;SDS011;2540;50.928;6.856;2023-06-10T05:44:19;16.83;;;9.03;;
5042;SDS011;2540;50.928;6.856;2023-06-10T05:46:45;11.53;;;7.80;;
5042;SDS011;2540;50.928;6.856;2023-06-10T05:49:10;18.40;;;8.40;;
5042;SDS011;2540;50.928;6.856;2023-06-10T05:51:36;10.00;;;7.80;;
5042;SDS011;2540;50.928;6.856;2023-06-10T05:54:02;13.90;;;7.63;;
5042;SDS011;2540;50.928;6.856;2023-06-10T05:56:27;10.80;;;6.90;;
5042;SDS011;2540;50.928;6.856;2023-06-10T05:58:53;16.73;;;8.43;;
5042;SDS011;2540;50.928;6.856;2023-06-10T06:01:18;9.73;;;7.30;;
5042;SDS011;2540;50.928;6.856;2023-06-10T06:03:43;13.33;;;7.20;;
5042;SDS011;2540;50.928;6.856;2023-06-10T06:06:09;10.90;;;7.40;;
5042;SDS011;2540;50.928;6.856;2023-06-10T06:08:34;11.00;;;6.97;;
5042;SDS011;2540;50.928;6.856;2023-06-10T06:10:59;11.73;;;7.70;;
5042;SDS011;2540;50.928;6.856;2023-06-10T06:13:25;11.30;;;7.57;;
5042;SDS011;2540;50.928;6.856;2023-06-10T06:15:50;11.70;;;6.80;;
5042;SDS011;2540;50.928;6.856;2023-06-10T06:18:15;14.37;;;7.47;;
5042;SDS011;2540;50.928;6.856;2023-06-10T06:20:41;10.73;;;6.93;;
5042;SDS011;2540;50.928;6.856;2023-06-10T06:23:06;10.73;;;6.83;;
5042;SDS011;2540;50.928;6.856;2023-06-10T06:25:33;10.17;;;7.20;;
5042;SDS011;2540;50.928;6.856;2023-06-10T06:28:00;11.20;;;6.50;;
5042;SDS011;2540;50.928;6.856;2023-06-10T06:30:25;10.07;;;6.30;;
5042;SDS011;2540;50.928;6.856;2023-06-10T06:32:51;10.87;;;6.93;;
5042;SDS011;2540;50.928;6.856;2023-06-10T06:35:16;9.97;;;6.13;;
5042;SDS011;2540;50.928;6.856;2023-06-10T06:37:42;8.50;;;5.40;;
5042;SDS011;2540;50.928;6.856;2023-06-10T06:40:07;8.27;;;6.20;;
5042;SDS011;2540;50.928;6.856;2023-06-10T06:42:33;12.90;;;6.30;;
5042;SDS011;2540;50.928;6.856;2023-06-10T06:44:58;9.47;;;6.63;;
5042;SDS011;2540;50.928;6.856;2023-06-10T06:47:24;8.80;;;5.73;;
5042;SDS011;2540;50.928;6.856;2023-06-10T06:49:49;7.00;;;5.50;;
5042;SDS011;2540;50.928;6.856;2023-06-10T06:52:15;8.93;;;5.87;;
5042;SDS011;2540;50.928;6.856;2023-06-10T06:54:40;7.00;;;5.67;;
5042;SDS011;2540;50.928;6.856;2023-06-10T06:57:06;9.33;;;6.30;;
5042;SDS011;2540;50.928;6.856;2023-06-10T06:59:32;8.37;;;6.27;;
5042;SDS011;2540;50.928;6.856;2023-06-10T07:01:57;9.13;;;5.90;;
5042;SDS011;2540;50.928;6.856;2023-06-10T07:04:23;8.87;;;5.83;;
5042;SDS011;2540;50.928;6.856;2023-06-10T07:06:48;9.70;;;5.60;;
5042;SDS011;2540;50.928;6.856;2023-06-10T07:09:13;8.80;;;6.20;;
5042;SDS011;2540;50.928;6.856;2023-06-10T07:11:39;8.30;;;5.77;;
5042;SDS011;2540;50.928;6.856;2023-06-10T07:14:04;9.57;;;5.60;;
5042;SDS011;2540;50.928;6.856;2023-06-10T07:16:29;10.90;;;6.77;;
5042;SDS011;2540;50.928;6.856;2023-06-10T07:18:55;10.83;;;5.83;;
5042;SDS011;2540;50.928;6.856;2023-06-10T07:21:20;8.50;;;5.33;;
5042;SDS011;2540;50.928;6.856;2023-06-10T07:23:47;9.60;;;5.40;;
5042;SDS011;2540;50.928;6.856;2023-06-10T07:26:12;7.60;;;5.73;;
5042;SDS011;2540;50.928;6.856;2023-06-10T07:28:41;7.20;;;5.50;;
5042;SDS011;2540;50.928;6.856;2023-06-10T07:31:07;8.67;;;5.30;;
5042;SDS011;2540;50.928;6.856;2023-06-10T07:33:33;7.63;;;5.77;;
5042;SDS011;2540;50.928;6.856;2023-06-10T07:35:59;10.00;;;6.30;;
5042;SDS011;2540;50.928;6.856;2023-06-10T07:38:24;11.33;;;5.90;;
5042;SDS011;2540;50.928;6.856;2023-06-10T07:40:50;8.80;;;6.07;;
5042;SDS011;2540;50.928;6.856;2023-06-10T07:43:16;10.77;;;5.93;;
5042;SDS011;2540;50.928;6.856;2023-06-10T07:45:41;16.40;;;6.40;;
5042;SDS011;2540;50.928;6.856;2023-06-10T07:48:07;9.53;;;6.03;;
5042;SDS011;2540;50.928;6.856;2023-06-10T07:50:33;9.53;;;6.10;;
5042;SDS011;2540;50.928;6.856;2023-06-10T07:52:58;8.40;;;5.97;;
5042;SDS011;2540;50.928;6.856;2023-06-10T07:55:24;8.03;;;6.23;;
5042;SDS011;2540;50.928;6.856;2023-06-10T07:57:51;7.77;;;6.10;;
5042;SDS011;2540;50.928;6.856;2023-06-10T08:00:16;12.30;;;5.80;;
5042;SDS011;2540;50.928;6.856;2023-06-10T08:02:42;11.13;;;6.47;;
5042;SDS011;2540;50.928;6.856;2023-06-10T08:05:07;9.83;;;5.70;;
5042;SDS011;2540;50.928;6.856;2023-06-10T08:07:33;8.80;;;6.70;;
5042;SDS011;2540;50.928;6.856;2023-06-10T08:09:58;11.00;;;6.40;;
5042;SDS011;2540;50.928;6.856;2023-06-10T08:12:24;7.73;;;5.90;;
5042;SDS011;2540;50.928;6.856;2023-06-10T08:14:49;8.33;;;6.63;;
5042;SDS011;2540;50.928;6.856;2023-06-10T08:17:14;7.40;;;5.77;;
5042;SDS011;2540;50.928;6.856;2023-06-10T08:19:40;10.90;;;6.43;;
5042;SDS011;2540;50.928;6.856;2023-06-10T08:22:05;14.50;;;6.67;;
5042;SDS011;2540;50.928;6.856;2023-06-10T08:24:30;10.83;;;5.53;;
5042;SDS011;2540;50.928;6.856;2023-06-10T08:26:56;8.30;;;6.07;;
5042;SDS011;2540;50.928;6.856;2023-06-10T08:29:22;11.00;;;6.60;;
5042;SDS011;2540;50.928;6.856;2023-06-10T08:31:47;9.70;;;5.87;;
5042;SDS011;2540;50.928;6.856;2023-06-10T08:34:13;10.43;;;6.43;;
5042;SDS011;2540;50.928;6.856;2023-06-10T08:36:38;10.23;;;6.47;;
5042;SDS011;2540;50.928;6.856;2023-06-10T08:39:03;9.30;;;5.67;;
5042;SDS011;2540;50.928;6.856;2023-06-10T08:41:30;12.13;;;6.03;;
5042;SDS011;2540;50.928;6.856;2023-06-10T08:44:10;9.73;;;5.90;;
5042;SDS011;2540;50.928;6.856;2023-06-10T08:46:43;8.50;;;6.50;;
5042;SDS011;2540;50.928;6.856;2023-06-10T08:49:10;11.47;;;6.03;;
5042;SDS011;2540;50.928;6.856;2023-06-10T08:51:35;11.30;;;6.27;;
5042;SDS011;2540;50.928;6.856;2023-06-10T08:54:02;11.83;;;6.60;;
5042;SDS011;2540;50.928;6.856;2023-06-10T08:56:31;11.20;;;6.43;;
5042;SDS011;2540;50.928;6.856;2023-06-10T08:59:02;15.53;;;7.07;;
5042;SDS011;2540;50.928;6.856;2023-06-10T09:01:28;18.30;;;6.50;;
5042;SDS011;2540;50.928;6.856;2023-06-10T09:03:54;7.87;;;6.13;;
5042;SDS011;2540;50.928;6.856;2023-06-10T09:06:19;8.53;;;5.97;;
5042;SDS011;2540;50.928;6.856;2023-06-10T09:08:45;7.40;;;5.93;;
5042;SDS011;2540;50.928;6.856;2023-06-10T09:11:10;9.97;;;7.00;;
5042;SDS011;2540;50.928;6.856;2023-06-10T09:13:36;9.20;;;6.40;;
5042;SDS011;2540;50.928;6.856;2023-06-10T09:16:01;11.37;;;6.57;;
5042;SDS011;2540;50.928;6.856;2023-06-10T09:18:27;13.47;;;6.77;;
5042;SDS011;2540;50.928;6.856;2023-06-10T09:20:53;9.40;;;6.70;;
5042;SDS011;2540;50.928;6.856;2023-06-10T09:23:18;8.53;;;6.57;;
5042;SDS011;2540;50.928;6.856;2023-06-10T09:25:44;10.00;;;6.50;;
5042;SDS011;2540;50.928;6.856;2023-06-10T09:28:13;10.97;;;6.60;;
5042;SDS011;2540;50.928;6.856;2023-06-10T09:30:40;9.30;;;6.47;;
5042;SDS011;2540;50.928;6.856;2023-06-10T09:33:12;9.77;;;6.80;;
5042;SDS011;2540;50.928;6.856;2023-06-10T09:35:46;9.53;;;7.27;;
5042;SDS011;2540;50.928;6.856;2023-06-10T09:38:13;10.77;;;7.00;;
5042;SDS011;2540;50.928;6.856;2023-06-10T09:40:51;8.87;;;6.77;;
5042;SDS011;2540;50.928;6.856;2023-06-10T09:43:18;9.93;;;7.23;;
5042;SDS011;2540;50.928;6.856;2023-06-10T09:45:43;11.20;;;6.93;;
5042;SDS011;2540;50.928;6.856;2023-06-10T09:48:09;13.50;;;6.80;;
5042;SDS011;2540;50.928;6.856;2023-06-10T09:50:34;9.03;;;6.70;;
5042;SDS011;2540;50.928;6.856;2023-06-10T09:53:00;13.03;;;6.47;;
5042;SDS011;2540;50.928;6.856;2023-06-10T09:55:27;11.03;;;6.53;;
5042;SDS011;2540;50.928;6.856;2023-06-10T09:57:53;10.53;;;6.47;;
5042;SDS011;2540;50.928;6.856;2023-06-10T10:00:19;16.00;;;6.47;;
5042;SDS011;2540;50.928;6.856;2023-06-10T10:02:51;10.37;;;6.57;;
5042;SDS011;2540;50.928;6.856;2023-06-10T10:05:19;10.17;;;6.97;;
5042;SDS011;2540;50.928;6.856;2023-06-10T10:07:46;10.57;;;6.50;;
5042;SDS011;2540;50.928;6.856;2023-06-10T10:10:14;12.00;;;6.37;;
5042;SDS011;2540;50.928;6.856;2023-06-10T10:12:40;12.43;;;6.80;;
5042;SDS011;2540;50.928;6.856;2023-06-10T10:15:07;9.00;;;6.53;;
5042;SDS011;2540;50.928;6.856;2023-06-10T10:17:34;9.97;;;6.80;;
5042;SDS011;2540;50.928;6.856;2023-06-10T10:20:02;10.63;;;6.50;;
5042;SDS011;2540;50.928;6.856;2023-06-10T10:22:30;9.97;;;6.40;;
5042;SDS011;2540;50.928;6.856;2023-06-10T10:25:01;10.17;;;6.60;;
5042;SDS011;2540;50.928;6.856;2023-06-10T10:27:28;8.60;;;6.20;;
5042;SDS011;2540;50.928;6.856;2023-06-10T10:29:56;12.07;;;6.70;;
5042;SDS011;2540;50.928;6.856;2023-06-10T10:32:34;10.30;;;6.93;;
5042;SDS011;2540;50.928;6.856;2023-06-10T10:35:12;9.23;;;6.60;;
5042;SDS011;2540;50.928;6.856;2023-06-10T10:37:42;8.30;;;6.20;;
5042;SDS011;2540;50.928;6.856;2023-06-10T10:40:08;7.20;;;6.40;;
5042;SDS011;2540;50.928;6.856;2023-06-10T10:42:34;7.57;;;6.30;;
5042;SDS011;2540;50.928;6.856;2023-06-10T10:44:59;11.03;;;6.07;;
5042;SDS011;2540;50.928;6.856;2023-06-10T10:47:27;7.80;;;6.80;;
5042;SDS011;2540;50.928;6.856;2023-06-10T10:49:54;7.60;;;6.10;;
5042;SDS011;2540;50.928;6.856;2023-06-10T10:52:23;7.13;;;6.37;;
5042;SDS011;2540;50.928;6.856;2023-06-10T10:54:49;8.53;;;5.90;;
5042;SDS011;2540;50.928;6.856;2023-06-10T10:57:18;10.33;;;5.73;;
5042;SDS011;2540;50.928;6.856;2023-06-10T10:59:44;10.80;;;6.73;;
5042;SDS011;2540;50.928;6.856;2023-06-10T11:02:10;7.60;;;5.73;;
5042;SDS011;2540;50.928;6.856;2023-06-10T11:04:35;8.40;;;6.73;;
5042;SDS011;2540;50.928;6.856;2023-06-10T11:07:07;7.40;;;6.03;;
5042;SDS011;2540;50.928;6.856;2023-06-10T11:09:33;8.40;;;6.70;;
5042;SDS011;2540;50.928;6.856;2023-06-10T11:11:58;7.57;;;6.47;;
5042;SDS011;2540;50.928;6.856;2023-06-10T11:14:28;7.43;;;6.27;;
5042;SDS011;2540;50.928;6.856;2023-06-10T11:16:56;7.43;;;6.43;;
5042;SDS011;2540;50.928;6.856;2023-06-10T11:19:32;10.17;;;6.67;;
5042;SDS011;2540;50.928;6.856;2023-06-10T11:22:01;6.47;;;5.67;;
5042;SDS011;2540;50.928;6.856;2023-06-10T11:24:31;7.93;;;6.17;;
5042;SDS011;2540;50.928;6.856;2023-06-10T11:32:41;15.37;;;6.67;;
5042;SDS011;2540;50.928;6.856;2023-06-10T11:35:07;12.70;;;5.60;;
5042;SDS011;2540;50.928;6.856;2023-06-10T11:37:33;12.13;;;6.20;;
5042;SDS011;2540;50.928;6.856;2023-06-10T11:39:58;10.20;;;6.00;;
5042;SDS011;2540;50.928;6.856;2023-06-10T11:42:24;8.20;;;6.37;;
5042;SDS011;2540;50.928;6.856;2023-06-10T11:44:50;7.07;;;5.70;;
5042;SDS011;2540;50.928;6.856;2023-06-10T11:47:16;8.50;;;5.90;;
5042;SDS011;2540;50.928;6.856;2023-06-10T11:49:41;5.60;;;5.00;;
5042;SDS011;2540;50.928;6.856;2023-06-10T11:52:07;6.83;;;5.57;;
5042;SDS011;2540;50.928;6.856;2023-06-10T11:54:32;9.33;;;5.37;;
5042;SDS011;2540;50.928;6.856;2023-06-10T11:56:58;9.10;;;5.60;;
5042;SDS011;2540;50.928;6.856;2023-06-10T11:59:26;7.00;;;5.50;;
5042;SDS011;2540;50.928;6.856;2023-06-10T12:01:52;11.30;;;5.73;;
5042;SDS011;2540;50.928;6.856;2023-06-10T12:04:17;8.50;;;5.57;;
5042;SDS011;2540;50.928;6.856;2023-06-10T12:06:47;8.10;;;5.33;;
5042;SDS011;2540;50.928;6.856;2023-06-10T12:09:26;6.03;;;5.43;;
5042;SDS011;2540;50.928;6.856;2023-06-10T12:12:03;9.23;;;5.60;;
5042;SDS011;2540;50.928;6.856;2023-06-10T12:14:49;10.93;;;6.07;;
5042;SDS011;2540;50.928;6.856;2023-06-10T12:17:15;8.03;;;5.30;;
5042;SDS011;2540;50.928;6.856;2023-06-10T12:19:40;7.43;;;5.70;;
5042;SDS011;2540;50.928;6.856;2023-06-10T12:22:05;6.57;;;5.30;;
5042;SDS011;2540;50.928;6.856;2023-06-10T12:24:31;8.43;;;5.97;;
5042;SDS011;2540;50.928;6.856;2023-06-10T12:26:56;8.97;;;5.80;;
5042;SDS011;2540;50.928;6.856;2023-06-10T12:29:23;8.63;;;5.60;;
5042;SDS011;2540;50.928;6.856;2023-06-10T12:34:33;8.80;;;5.73;;
5042;SDS011;2540;50.928;6.856;2023-06-10T12:37:05;7.83;;;5.70;;
5042;SDS011;2540;50.928;6.856;2023-06-10T12:39:32;13.60;;;5.60;;
5042;SDS011;2540;50.928;6.856;2023-06-10T12:41:58;15.93;;;5.73;;
5042;SDS011;2540;50.928;6.856;2023-06-10T12:44:33;6.30;;;5.60;;
5042;SDS011;2540;50.928;6.856;2023-06-10T12:47:00;10.33;;;5.80;;
5042;SDS011;2540;50.928;6.856;2023-06-10T12:49:26;9.20;;;6.10;;
5042;SDS011;2540;50.928;6.856;2023-06-10T12:51:51;10.10;;;5.60;;
5042;SDS011;2540;50.928;6.856;2023-06-10T12:54:17;6.30;;;5.60;;
5042;SDS011;2540;50.928;6.856;2023-06-10T12:56:42;11.20;;;5.10;;
5042;SDS011;2540;50.928;6.856;2023-06-10T12:59:08;16.20;;;5.10;;
5042;SDS011;2540;50.928;6.856;2023-06-10T13:01:33;9.70;;;6.00;;
5042;SDS011;2540;50.928;6.856;2023-06-10T13:03:59;5.70;;;4.93;;
5042;SDS011;2540;50.928;6.856;2023-06-10T13:06:24;8.87;;;6.00;;
5042;SDS011;2540;50.928;6.856;2023-06-10T13:08:50;7.80;;;4.90;;
5042;SDS011;2540;50.928;6.856;2023-06-10T13:11:16;7.77;;;5.13;;
5042;SDS011;2540;50.928;6.856;2023-06-10T13:13:41;7.90;;;4.97;;
5042;SDS011;2540;50.928;6.856;2023-06-10T13:16:06;9.17;;;5.43;;
5042;SDS011;2540;50.928;6.856;2023-06-10T13:18:32;8.27;;;5.30;;
5042;SDS011;2540;50.928;6.856;2023-06-10T13:21:02;5.60;;;5.00;;
5042;SDS011;2540;50.928;6.856;2023-06-10T13:23:28;6.40;;;5.00;;
5042;SDS011;2540;50.928;6.856;2023-06-10T13:25:53;5.33;;;4.70;;
5042;SDS011;2540;50.928;6.856;2023-06-10T13:28:19;7.17;;;5.03;;
5042;SDS011;2540;50.928;6.856;2023-06-10T13:30:44;4.77;;;4.37;;
5042;SDS011;2540;50.928;6.856;2023-06-10T13:33:10;17.83;;;5.17;;
5042;SDS011;2540;50.928;6.856;2023-06-10T13:35:35;6.67;;;4.80;;
5042;SDS011;2540;50.928;6.856;2023-06-10T13:38:01;10.50;;;5.27;;
5042;SDS011;2540;50.928;6.856;2023-06-10T13:40:26;5.47;;;4.90;;
5042;SDS011;2540;50.928;6.856;2023-06-10T13:42:51;7.93;;;5.47;;
5042;SDS011;2540;50.928;6.856;2023-06-10T13:45:19;5.27;;;4.20;;
5042;SDS011;2540;50.928;6.856;2023-06-10T13:47:44;7.27;;;4.50;;
5042;SDS011;2540;50.928;6.856;2023-06-10T13:50:10;5.90;;;4.57;;
5042;SDS011;2540;50.928;6.856;2023-06-10T13:52:35;6.27;;;5.23;;
5042;SDS011;2540;50.928;6.856;2023-06-10T13:55:00;6.13;;;5.13;;
5042;SDS011;2540;50.928;6.856;2023-06-10T13:57:26;6.17;;;5.30;;
5042;SDS011;2540;50.928;6.856;2023-06-10T13:59:51;10.60;;;5.10;;
5042;SDS011;2540;50.928;6.856;2023-06-10T14:02:16;11.13;;;4.67;;
5042;SDS011;2540;50.928;6.856;2023-06-10T14:04:42;11.47;;;5.30;;
5042;SDS011;2540;50.928;6.856;2023-06-10T14:07:07;8.47;;;5.20;;
5042;SDS011;2540;50.928;6.856;2023-06-10T14:09:32;5.90;;;4.80;;
5042;SDS011;2540;50.928;6.856;2023-06-10T14:11:58;6.67;;;5.73;;
5042;SDS011;2540;50.928;6.856;2023-06-10T14:14:23;6.63;;;5.60;;
5042;SDS011;2540;50.928;6.856;2023-06-10T14:16:49;9.50;;;4.80;;
5042;SDS011;2540;50.928;6.856;2023-06-10T14:19:14;10.23;;;5.13;;
5042;SDS011;2540;50.928;6.856;2023-06-10T14:21:39;8.23;;;5.33;;
5042;SDS011;2540;50.928;6.856;2023-06-10T14:24:05;8.33;;;5.30;;
5042;SDS011;2540;50.928;6.856;2023-06-10T14:26:30;5.67;;;5.07;;
5042;SDS011;2540;50.928;6.856;2023-06-10T14:28:57;6.00;;;4.83;;
5042;SDS011;2540;50.928;6.856;2023-06-10T14:31:22;9.00;;;5.03;;
5042;SDS011;2540;50.928;6.856;2023-06-10T14:33:48;5.50;;;4.50;;
5042;SDS011;2540;50.928;6.856;2023-06-10T14:36:13;5.60;;;4.80;;
5042;SDS011;2540;50.928;6.856;2023-06-10T14:38:39;5.57;;;5.00;;
5042;SDS011;2540;50.928;6.856;2023-06-10T14:41:04;6.30;;;4.70;;
5042;SDS011;2540;50.928;6.856;2023-06-10T14:43:29;12.10;;;5.10;;
5042;SDS011;2540;50.928;6.856;2023-06-10T14:45:55;7.93;;;5.10;;
5042;SDS011;2540;50.928;6.856;2023-06-10T14:48:21;11.77;;;5.50;;
5042;SDS011;2540;50.928;6.856;2023-06-10T14:50:46;6.23;;;4.87;;
5042;SDS011;2540;50.928;6.856;2023-06-10T14:53:15;8.37;;;4.63;;
5042;SDS011;2540;50.928;6.856;2023-06-10T14:55:41;5.60;;;4.50;;
5042;SDS011;2540;50.928;6.856;2023-06-10T14:58:06;6.57;;;4.80;;
5042;SDS011;2540;50.928;6.856;2023-06-10T15:00:32;6.07;;;4.33;;
5042;SDS011;2540;50.928;6.856;2023-06-10T15:02:57;12.03;;;5.07;;
5042;SDS011;2540;50.928;6.856;2023-06-10T15:05:22;6.83;;;4.70;;
5042;SDS011;2540;50.928;6.856;2023-06-10T15:07:48;7.23;;;5.70;;
5042;SDS011;2540;50.928;6.856;2023-06-10T15:10:13;6.87;;;5.60;;
5042;SDS011;2540;50.928;6.856;2023-06-10T15:12:39;7.30;;;4.87;;
5042;SDS011;2540;50.928;6.856;2023-06-10T15:15:04;7.63;;;4.73;;